createdAt,value
2022-10-31T00:01:40.725Z,1.30
2022-10-31T00:04:23.714Z,1.75
2022-10-31T00:07:07.990Z,1.08
2022-10-31T00:09:50.875Z,0.90
2022-10-31T00:12:33.821Z,1.00
2022-10-31T00:15:16.833Z,0.80
2022-10-31T00:18:01.020Z,1.00
2022-10-31T00:20:44.195Z,1.20
2022-10-31T00:23:28.392Z,1.30
2022-10-31T00:26:11.686Z,1.23
2022-10-31T00:28:54.582Z,1.10
2022-10-31T00:31:37.479Z,1.30
2022-10-31T00:34:20.555Z,1.42
2022-10-31T00:37:03.473Z,1.33
2022-10-31T00:39:49.928Z,1.25
2022-10-31T00:42:32.842Z,0.95
2022-10-31T00:45:16.451Z,1.08
2022-10-31T00:47:59.748Z,0.95
2022-10-31T00:50:44.573Z,1.02
2022-10-31T00:53:27.652Z,0.95
2022-10-31T00:56:12.077Z,1.27
2022-10-31T00:58:55.061Z,1.35
2022-10-31T01:01:38.096Z,1.20
2022-10-31T01:04:21.139Z,1.05
2022-10-31T01:07:05.803Z,1.05
2022-10-31T01:09:48.701Z,0.98
2022-10-31T01:12:38.211Z,0.60
2022-10-31T01:15:23.249Z,1.02
2022-10-31T01:18:06.229Z,0.85
2022-10-31T01:20:49.184Z,1.00
2022-10-31T01:23:32.338Z,1.05
2022-10-31T01:26:16.727Z,1.00
2022-10-31T01:29:02.784Z,1.10
2022-10-31T01:31:45.730Z,1.17
2022-10-31T01:34:28.683Z,0.90
2022-10-31T01:37:11.577Z,0.90
2022-10-31T01:39:54.505Z,1.00
2022-10-31T01:42:37.477Z,0.90
2022-10-31T01:45:22.528Z,0.68
2022-10-31T01:48:05.674Z,0.80
2022-10-31T01:50:51.014Z,0.80
2022-10-31T01:53:34.110Z,0.80
2022-10-31T01:56:19.405Z,1.20
2022-10-31T01:59:04.569Z,0.90
2022-10-31T02:01:52.283Z,0.90
2022-10-31T02:04:36.819Z,0.75
2022-10-31T02:07:26.751Z,0.75
2022-10-31T02:10:12.767Z,0.80
2022-10-31T02:12:59.351Z,1.00
2022-10-31T02:15:45.079Z,0.60
2022-10-31T02:18:32.431Z,0.70
2022-10-31T02:21:21.885Z,0.90
2022-10-31T02:24:37.627Z,0.88
2022-10-31T02:30:26.210Z,0.80
2022-10-31T02:33:20.981Z,0.95
2022-10-31T02:36:13.003Z,0.90
2022-10-31T02:39:04.722Z,1.15
2022-10-31T02:42:05.132Z,0.85
2022-10-31T02:44:57.099Z,0.80
2022-10-31T02:47:40.812Z,0.90
2022-10-31T02:50:30.800Z,0.80
2022-10-31T02:53:16.940Z,0.82
2022-10-31T02:56:03.432Z,0.75
2022-10-31T02:58:51.260Z,0.90
2022-10-31T03:02:03.196Z,0.90
2022-10-31T03:05:01.507Z,0.70
2022-10-31T03:07:54.025Z,1.13
2022-10-31T03:10:43.901Z,1.05
2022-10-31T03:13:36.434Z,1.00
2022-10-31T03:16:31.260Z,0.85
2022-10-31T03:19:18.684Z,0.90
2022-10-31T03:22:07.685Z,0.80
2022-10-31T03:24:52.976Z,1.30
2022-10-31T03:27:40.040Z,1.02
2022-10-31T03:30:23.479Z,1.23
2022-10-31T03:33:19.965Z,1.00
2022-10-31T03:36:06.207Z,1.15
2022-10-31T03:38:49.782Z,0.85
2022-10-31T03:41:43.189Z,1.08
2022-10-31T03:44:28.428Z,1.40
2022-10-31T03:47:16.588Z,1.65
2022-10-31T03:49:59.912Z,1.08
2022-10-31T03:52:48.456Z,0.98
2022-10-31T03:55:35.312Z,1.20
2022-10-31T03:58:24.803Z,1.02
2022-10-31T04:01:16.084Z,0.80
2022-10-31T04:04:00.796Z,0.70
2022-10-31T04:06:46.336Z,1.10
2022-10-31T04:09:34.696Z,0.95
2022-10-31T04:12:18.658Z,0.80
2022-10-31T04:15:13.214Z,1.00
2022-10-31T04:18:00.685Z,1.20
2022-10-31T04:20:44.571Z,1.33
2022-10-31T04:23:29.758Z,0.90
2022-10-31T04:26:14.027Z,0.63
2022-10-31T04:29:00.130Z,1.15
2022-10-31T04:31:46.026Z,0.98
2022-10-31T04:34:29.087Z,0.70
2022-10-31T04:37:12.013Z,0.90
2022-10-31T04:39:55.373Z,1.17
2022-10-31T04:43:10.209Z,1.30
2022-10-31T04:45:55.148Z,0.90
2022-10-31T04:48:40.385Z,1.30
2022-10-31T04:51:24.302Z,1.02
2022-10-31T04:54:08.176Z,0.80
2022-10-31T04:56:51.017Z,0.80
2022-10-31T04:59:38.078Z,0.90
2022-10-31T05:02:21.087Z,1.25
2022-10-31T05:05:12.099Z,1.10
2022-10-31T05:07:55.585Z,0.93
2022-10-31T05:10:40.434Z,4.32
2022-10-31T05:13:23.372Z,4.60
2022-10-31T05:16:32.364Z,2.25
2022-10-31T05:19:53.373Z,1.20
2022-10-31T05:22:57.911Z,1.60
2022-10-31T05:25:42.703Z,1.48
2022-10-31T05:28:25.752Z,1.40
2022-10-31T05:31:08.709Z,1.50
2022-10-31T05:33:51.583Z,1.13
2022-10-31T05:36:40.583Z,1.30
2022-10-31T05:39:30.601Z,1.27
2022-10-31T05:42:19.747Z,1.45
2022-10-31T05:45:03.975Z,1.40
2022-10-31T05:47:59.096Z,1.20
2022-10-31T05:51:01.401Z,1.60
2022-10-31T05:53:44.318Z,1.00
2022-10-31T05:56:30.366Z,1.00
2022-10-31T05:59:13.269Z,1.17
2022-10-31T06:01:57.147Z,1.25
2022-10-31T06:04:50.834Z,1.17
2022-10-31T06:07:35.202Z,0.98
2022-10-31T06:10:20.365Z,0.95
2022-10-31T06:13:07.699Z,1.10
2022-10-31T06:15:58.001Z,0.95
2022-10-31T06:18:47.751Z,1.17
2022-10-31T06:21:30.642Z,1.30
2022-10-31T06:24:13.573Z,1.20
2022-10-31T06:27:26.128Z,1.40
2022-10-31T06:30:12.452Z,1.73
2022-10-31T06:32:55.460Z,1.08
2022-10-31T06:35:38.884Z,1.25
2022-10-31T06:38:21.825Z,1.48
2022-10-31T06:41:05.647Z,1.60
2022-10-31T06:43:59.006Z,1.30
2022-10-31T06:47:01.984Z,1.20
2022-10-31T06:50:05.706Z,1.92
2022-10-31T06:52:53.025Z,1.08
2022-10-31T06:55:36.413Z,1.10
2022-10-31T06:58:19.418Z,1.10
2022-10-31T07:01:04.155Z,0.98
2022-10-31T07:03:48.604Z,0.88
2022-10-31T07:06:31.558Z,0.95
2022-10-31T07:09:14.545Z,1.13
2022-10-31T07:11:57.495Z,1.23
2022-10-31T07:14:40.566Z,1.20
2022-10-31T07:17:29.733Z,1.05
2022-10-31T07:20:16.772Z,1.00
2022-10-31T07:23:01.720Z,1.45
2022-10-31T07:25:46.663Z,1.20
2022-10-31T07:28:36.597Z,1.10
2022-10-31T07:31:22.488Z,1.17
2022-10-31T07:34:06.955Z,1.02
2022-10-31T07:37:20.092Z,1.00
2022-10-31T07:40:03.378Z,1.10
2022-10-31T07:42:49.050Z,1.00
2022-10-31T07:45:53.158Z,0.90
2022-10-31T07:49:08.216Z,1.27
2022-10-31T07:52:09.620Z,1.48
2022-10-31T07:55:17.073Z,0.90
2022-10-31T07:58:05.788Z,1.13
2022-10-31T08:00:54.799Z,1.45
2022-10-31T08:03:47.654Z,1.10
2022-10-31T08:06:49.377Z,1.20
2022-10-31T08:09:46.756Z,1.23
2022-10-31T08:12:39.692Z,1.00
2022-10-31T08:15:24.361Z,1.35
2022-10-31T08:18:08.579Z,1.17
2022-10-31T08:20:55.871Z,1.30
2022-10-31T08:23:39.453Z,1.50
2022-10-31T08:26:24.180Z,1.40
2022-10-31T08:29:10.815Z,1.38
2022-10-31T08:31:54.938Z,1.85
2022-10-31T08:34:56.052Z,1.45
2022-10-31T08:37:57.991Z,1.27
2022-10-31T08:40:42.958Z,1.30
2022-10-31T08:43:25.854Z,1.42
2022-10-31T08:46:10.236Z,1.45
2022-10-31T08:48:54.042Z,1.58
2022-10-31T08:51:37.465Z,1.50
2022-10-31T08:54:20.394Z,1.20
2022-10-31T08:57:05.963Z,1.10
2022-10-31T08:59:57.771Z,1.17
2022-10-31T09:02:44.269Z,1.58
2022-10-31T09:05:27.757Z,1.45
2022-10-31T09:08:16.760Z,1.98
2022-10-31T09:11:02.343Z,1.40
2022-10-31T09:14:17.208Z,1.50
2022-10-31T09:17:31.830Z,1.58
2022-10-31T09:20:40.109Z,1.75
2022-10-31T09:23:24.948Z,1.40
2022-10-31T09:28:53.855Z,1.75
2022-10-31T09:31:40.852Z,1.52
2022-10-31T09:34:39.579Z,1.30
2022-10-31T09:37:28.483Z,1.77
2022-10-31T09:40:12.195Z,1.70
2022-10-31T09:43:05.292Z,1.80
2022-10-31T09:45:57.165Z,1.67
2022-10-31T09:49:06.457Z,1.70
2022-10-31T09:55:05.451Z,1.38
2022-10-31T09:57:49.940Z,1.00
2022-10-31T10:00:34.271Z,1.00
2022-10-31T10:03:28.976Z,1.05
2022-10-31T10:06:19.371Z,1.00
2022-10-31T10:09:28.999Z,1.10
2022-10-31T10:13:06.389Z,1.15
2022-10-31T10:16:10.536Z,1.10
2022-10-31T10:19:06.675Z,1.40
2022-10-31T10:21:59.738Z,1.35
2022-10-31T10:24:57.841Z,1.13
2022-10-31T10:27:51.613Z,1.40
2022-10-31T10:30:40.227Z,1.77
2022-10-31T10:33:25.914Z,1.52
2022-10-31T10:36:14.590Z,1.40
2022-10-31T10:39:02.604Z,1.35
2022-10-31T10:42:03.435Z,1.60
2022-10-31T10:45:08.153Z,1.50
2022-10-31T10:48:04.258Z,1.40
2022-10-31T10:50:51.254Z,1.67
2022-10-31T10:54:04.091Z,1.73
2022-10-31T10:57:02.878Z,1.55
2022-10-31T10:59:47.562Z,1.30
2022-10-31T11:05:24.154Z,1.77
2022-10-31T11:08:08.961Z,1.50
2022-10-31T11:11:00.066Z,1.65
2022-10-31T11:13:44.199Z,1.33
2022-10-31T11:16:40.423Z,1.50
2022-10-31T11:19:27.423Z,1.50
2022-10-31T11:22:18.244Z,1.50
2022-10-31T11:25:01.180Z,1.60
2022-10-31T11:27:44.032Z,1.27
2022-10-31T11:30:26.963Z,1.58
2022-10-31T11:33:20.933Z,1.40
2022-10-31T11:36:16.279Z,1.38
2022-10-31T11:39:02.043Z,1.50
2022-10-31T11:41:46.023Z,1.77
2022-10-31T11:44:31.044Z,1.80
2022-10-31T11:47:17.388Z,1.48
2022-10-31T11:50:10.447Z,2.40
2022-10-31T11:55:40.743Z,2.30
2022-10-31T11:58:25.593Z,2.05
2022-10-31T12:01:22.287Z,1.92
2022-10-31T12:04:10.505Z,1.88
2022-10-31T12:06:56.897Z,2.20
2022-10-31T12:09:41.984Z,1.83
2022-10-31T12:12:44.510Z,2.20
2022-10-31T12:15:35.123Z,2.00
2022-10-31T12:18:37.943Z,2.30
2022-10-31T12:21:32.959Z,2.65
2022-10-31T12:27:22.435Z,1.95
2022-10-31T12:30:17.374Z,2.13
2022-10-31T12:36:09.660Z,1.70
2022-10-31T12:39:13.996Z,1.65
2022-10-31T12:42:05.448Z,1.63
2022-10-31T12:45:05.747Z,2.25
2022-10-31T12:48:10.281Z,1.48
2022-10-31T12:51:01.538Z,1.80
2022-10-31T12:53:58.905Z,1.88
2022-10-31T12:56:52.749Z,1.30
2022-10-31T12:59:42.306Z,1.90
2022-10-31T13:02:32.076Z,1.88
2022-10-31T13:05:21.608Z,1.40
2022-10-31T13:08:10.101Z,1.83
2022-10-31T13:11:04.578Z,1.70
2022-10-31T13:13:55.068Z,1.92
2022-10-31T13:16:42.167Z,2.17
2022-10-31T13:19:30.047Z,1.70
2022-10-31T13:22:18.408Z,1.70
2022-10-31T13:25:06.788Z,1.80
2022-10-31T13:27:55.161Z,1.13
2022-10-31T13:30:41.957Z,1.60
2022-10-31T13:33:31.910Z,1.42
2022-10-31T13:36:25.796Z,1.25
2022-10-31T13:39:23.298Z,1.50
2022-10-31T13:42:16.433Z,1.40
2022-10-31T13:45:13.524Z,1.85
2022-10-31T13:48:01.861Z,1.70
2022-10-31T13:50:58.161Z,1.67
2022-10-31T13:53:46.881Z,2.00
2022-10-31T13:56:32.154Z,1.60
2022-10-31T13:59:21.824Z,1.70
2022-10-31T14:02:16.961Z,1.73
2022-10-31T14:05:02.967Z,1.70
2022-10-31T14:07:48.831Z,1.75
2022-10-31T14:10:34.664Z,1.58
2022-10-31T14:13:22.938Z,1.70
2022-10-31T14:16:09.068Z,1.63
2022-10-31T14:19:06.529Z,2.03
2022-10-31T14:21:50.573Z,1.38
2022-10-31T14:24:37.713Z,1.48
2022-10-31T14:27:46.400Z,1.58
2022-10-31T14:30:31.343Z,1.60
2022-10-31T14:33:20.576Z,1.33
2022-10-31T14:36:06.963Z,1.30
2022-10-31T14:38:59.101Z,1.70
2022-10-31T14:42:02.162Z,1.60
2022-10-31T14:45:06.642Z,1.42
2022-10-31T14:48:06.921Z,1.85
2022-10-31T14:50:53.590Z,1.40
2022-10-31T14:53:43.724Z,1.50
2022-10-31T14:56:29.019Z,1.52
2022-10-31T14:59:18.487Z,1.13
2022-10-31T15:02:09.092Z,1.50
2022-10-31T15:04:54.491Z,1.40
2022-10-31T15:07:40.916Z,1.30
2022-10-31T15:10:26.537Z,1.10
2022-10-31T15:13:19.314Z,1.70
2022-10-31T15:16:03.714Z,1.60
2022-10-31T15:18:51.995Z,1.38
2022-10-31T15:21:36.632Z,1.33
2022-10-31T15:24:20.003Z,1.65
2022-10-31T15:27:05.300Z,1.20
2022-10-31T15:29:53.253Z,1.38
2022-10-31T15:32:37.637Z,1.30
2022-10-31T15:35:25.117Z,1.20
2022-10-31T15:38:10.453Z,1.50
2022-10-31T15:40:56.540Z,1.38
2022-10-31T15:43:41.676Z,1.60
2022-10-31T15:46:24.804Z,1.52
2022-10-31T15:49:20.577Z,1.77
2022-10-31T15:52:12.549Z,1.55
2022-10-31T15:54:58.220Z,1.50
2022-10-31T15:57:44.523Z,1.42
2022-10-31T16:00:29.483Z,1.35
2022-10-31T16:03:28.602Z,1.48
2022-10-31T16:06:23.145Z,1.30
2022-10-31T16:09:23.369Z,1.75
2022-10-31T16:12:06.449Z,1.73
2022-10-31T16:14:49.803Z,1.55
2022-10-31T16:17:33.809Z,1.65
2022-10-31T16:20:25.990Z,1.30
2022-10-31T16:23:18.411Z,1.23
2022-10-31T16:26:08.018Z,1.55
2022-10-31T16:29:02.667Z,1.70
2022-10-31T16:31:46.446Z,1.65
2022-10-31T16:34:29.366Z,1.60
2022-10-31T16:37:12.256Z,1.67
2022-10-31T16:39:56.528Z,1.70
2022-10-31T16:42:39.442Z,1.60
2022-10-31T16:45:24.781Z,1.60
2022-10-31T16:48:12.647Z,1.60
2022-10-31T16:50:55.552Z,1.38
2022-10-31T16:53:42.773Z,1.50
2022-10-31T16:56:32.383Z,1.50
2022-10-31T16:59:16.545Z,1.50
2022-10-31T17:02:00.339Z,1.58
2022-10-31T17:04:43.410Z,1.27
2022-10-31T17:07:26.339Z,1.50
2022-10-31T17:10:10.737Z,1.50
2022-10-31T17:12:55.785Z,1.50
2022-10-31T17:15:42.630Z,1.70
2022-10-31T17:18:27.517Z,1.60
2022-10-31T17:21:18.198Z,1.40
2022-10-31T17:24:01.230Z,1.52
2022-10-31T17:26:44.923Z,1.52
2022-10-31T17:29:29.129Z,1.40
2022-10-31T17:32:12.114Z,1.52
2022-10-31T17:34:54.992Z,1.42
2022-10-31T17:37:38.178Z,1.15
2022-10-31T17:40:23.113Z,1.20
2022-10-31T17:43:06.374Z,1.20
2022-10-31T17:45:50.644Z,1.55
2022-10-31T17:48:34.643Z,1.52
2022-10-31T17:51:17.929Z,1.20
2022-10-31T17:54:00.902Z,1.60
2022-10-31T17:56:43.880Z,1.48
2022-10-31T17:59:28.751Z,1.55
2022-10-31T18:02:13.185Z,1.60
2022-10-31T18:04:56.248Z,1.60
2022-10-31T18:07:39.215Z,1.27
2022-10-31T18:10:22.255Z,1.30
2022-10-31T18:13:05.224Z,1.60
2022-10-31T18:15:48.176Z,1.50
2022-10-31T18:18:32.447Z,1.58
2022-10-31T18:21:15.329Z,1.58
2022-10-31T18:23:59.977Z,1.70
2022-10-31T18:26:42.907Z,1.77
2022-10-31T18:29:25.890Z,1.58
2022-10-31T18:32:09.785Z,2.00
2022-10-31T18:34:54.246Z,2.50
2022-10-31T18:37:37.293Z,1.80
2022-10-31T18:40:20.193Z,1.75
2022-10-31T18:43:03.575Z,1.80
2022-10-31T18:45:48.690Z,1.80
2022-10-31T18:48:33.507Z,1.73
2022-10-31T18:51:18.496Z,1.65
2022-10-31T18:54:02.757Z,1.58
2022-10-31T18:56:45.857Z,1.60
2022-10-31T18:59:28.833Z,1.60
2022-10-31T19:02:14.993Z,2.00
2022-10-31T19:04:58.345Z,1.77
2022-10-31T19:07:42.575Z,1.88
2022-10-31T19:10:25.466Z,1.75
2022-10-31T19:13:08.680Z,1.75
2022-10-31T19:15:51.536Z,1.52
2022-10-31T19:18:34.578Z,1.67
2022-10-31T19:21:18.973Z,1.70
2022-10-31T19:24:03.286Z,1.52
2022-10-31T19:26:46.998Z,1.85
2022-10-31T19:29:30.502Z,1.65
2022-10-31T19:32:13.449Z,2.00
2022-10-31T19:34:56.283Z,1.60
2022-10-31T19:37:41.206Z,1.70
2022-10-31T19:40:25.435Z,1.85
2022-10-31T19:43:08.354Z,1.92
2022-10-31T19:45:55.418Z,2.00
2022-10-31T19:48:39.432Z,1.70
2022-10-31T19:51:23.052Z,1.70
2022-10-31T19:54:06.126Z,1.65
2022-10-31T19:56:50.691Z,1.58
2022-10-31T19:59:38.999Z,1.73
2022-10-31T20:02:22.309Z,1.92
2022-10-31T20:05:05.751Z,1.30
2022-10-31T20:07:48.757Z,1.70
2022-10-31T20:10:31.687Z,1.35
2022-10-31T20:13:15.933Z,1.77
2022-10-31T20:16:01.648Z,1.48
2022-10-31T20:18:46.898Z,1.48
2022-10-31T20:21:31.999Z,1.50
2022-10-31T20:24:14.868Z,1.48
2022-10-31T20:26:57.830Z,1.70
2022-10-31T20:29:42.079Z,1.50
2022-10-31T20:32:25.026Z,1.30
2022-10-31T20:35:08.792Z,1.38
2022-10-31T20:37:51.833Z,1.35
2022-10-31T20:40:35.042Z,1.58
2022-10-31T20:43:18.491Z,1.20
2022-10-31T20:46:03.329Z,1.35
2022-10-31T20:51:31.639Z,1.00
2022-10-31T20:54:15.275Z,1.10
2022-10-31T20:56:58.145Z,0.93
2022-10-31T20:59:41.192Z,1.50
2022-10-31T21:02:25.751Z,1.10
2022-10-31T21:05:09.812Z,1.23
2022-10-31T21:07:52.698Z,1.50
2022-10-31T21:10:35.599Z,1.40
2022-10-31T21:13:19.118Z,1.65
2022-10-31T21:16:03.175Z,1.48
2022-10-31T21:18:49.274Z,1.50
2022-10-31T21:21:34.459Z,1.45
2022-10-31T21:24:20.419Z,1.30
2022-10-31T21:27:06.288Z,1.08
2022-10-31T21:29:51.502Z,1.52
2022-10-31T21:32:34.429Z,1.33
2022-10-31T21:35:18.764Z,1.40
2022-10-31T21:38:01.912Z,1.70
2022-10-31T21:40:45.168Z,1.67
2022-10-31T21:43:28.129Z,1.30
2022-10-31T21:46:13.071Z,1.48
2022-10-31T21:48:56.450Z,1.38
2022-10-31T21:51:42.713Z,1.40
2022-10-31T21:54:28.534Z,1.35
2022-10-31T21:57:11.566Z,1.25
2022-10-31T21:59:54.508Z,1.30
2022-10-31T22:02:37.876Z,1.40
2022-10-31T22:05:20.757Z,1.23
2022-10-31T22:08:05.452Z,1.65
2022-10-31T22:13:31.789Z,1.30
2022-10-31T22:16:16.341Z,1.08
2022-10-31T22:19:05.146Z,1.02
2022-10-31T22:21:49.110Z,1.23
2022-10-31T22:24:33.464Z,1.53
2022-10-31T22:27:16.486Z,1.13
2022-10-31T22:29:59.601Z,1.25
2022-10-31T22:32:42.488Z,1.10
2022-10-31T22:35:25.380Z,1.23
2022-10-31T22:38:08.304Z,1.10
2022-10-31T22:40:57.390Z,1.27
2022-10-31T22:43:40.513Z,1.58
2022-10-31T22:46:25.399Z,1.63
2022-10-31T22:49:11.667Z,1.30
2022-10-31T22:51:55.441Z,1.23
2022-10-31T22:54:38.334Z,1.30
2022-10-31T22:57:22.565Z,1.50
2022-10-31T23:00:06.674Z,1.20
2022-10-31T23:02:49.615Z,1.10
2022-10-31T23:05:32.547Z,1.52
2022-10-31T23:08:15.445Z,1.67
2022-10-31T23:10:58.772Z,1.27
2022-10-31T23:14:00.553Z,1.40
2022-10-31T23:16:45.950Z,1.73
2022-10-31T23:19:30.748Z,1.25
2022-10-31T23:24:56.391Z,1.35
2022-10-31T23:27:38.313Z,1.48
2022-10-31T23:30:22.574Z,1.30
2022-10-31T23:33:05.480Z,1.40
2022-10-31T23:35:48.439Z,1.30
2022-10-31T23:38:31.354Z,1.38
2022-10-31T23:41:14.248Z,1.38
2022-10-31T23:43:57.160Z,1.33
2022-10-31T23:46:41.406Z,1.55
2022-10-31T23:49:24.450Z,1.50
2022-10-31T23:52:08.035Z,1.33
2022-10-31T23:54:50.954Z,1.08
2022-10-31T23:57:33.862Z,1.33
